aviador You're here:

PAKF Decoded Metar

FALSE PASS in AK, US
Report Time2017-08-20 13:01:00
UTC Time2017-08-20 13:41:00
Flight Rules mvfr MVFR
Wind320° at 11 Gusting to 25 kt
W.Decomp.*RWY 32: 10.6 kt HW 3 kt LCW
W.Rank320° ranks 5
Current wind is below 320° avg. (11.3)
Visibility9999 m
Phenomena:N/A
Clouds:Broken 017 Hf
Overcast 021 Hf
Expected CloudBase > 1,200 ft AGL from Temp-Dew spread
Ceiling1,700 ft
Temp11°C (ISA -4)
Dew Point08°C (82% RH)
AAT6.6°C
QNH1009 hPa
Density Alt-174 ft
Elevation19 ft
Report Wrong Elevation
Raw Report
PAKF 201301Z AUTO 32011G25KT 10SM BKN017 OVC021 11/08 A2981 RMK
AO2 PK WND 32029/1238 SLP190 T01110083 $=

Extra information for PAKF:More info

Metar Taf Metar & Taf Last 4 Metars F.Rules Stats Wind Profile Meteogram Temp Stats Airport Information Weather charts Add Link Nearby VenuesMetar ALERT Operation Metar Decoded Social comments